Time;durP1;ratioP1;P1;durP2;ratioP2;P2;SDS_P1;SDS_P2;PMS_P1;PMS_P2;Temp;Humidity;BMP_temperature;BMP_pressure;BME280_temperature;BME280_humidity;BME280_pressure;Samples;Min_cycle;Max_cycle;Signal;HPM_P1;HPM_P2
2021/10/05 00:00:25;;;;;;;19.20;17.30;;;13.10;99.90;;;;;;5015629;28;20526;-64
2021/10/05 00:02:51;;;;;;;21.20;19.00;;;13.00;99.90;;;;;;5015662;28;20587;-65
2021/10/05 00:05:17;;;;;;;22.97;19.13;;;13.00;99.90;;;;;;5015491;28;20202;-64
2021/10/05 00:07:42;;;;;;;21.67;19.57;;;13.10;99.90;;;;;;5015156;28;20191;-64
2021/10/05 00:10:10;;;;;;;20.93;18.83;;;13.10;99.90;;;;;;5015402;28;20200;-65
2021/10/05 00:12:36;;;;;;;19.23;17.33;;;13.20;99.90;;;;;;5015447;28;20225;-65
2021/10/05 00:15:05;;;;;;;20.40;18.30;;;13.30;99.90;;;;;;5015261;28;20424;-64
2021/10/05 00:17:30;;;;;;;19.33;17.23;;;13.40;99.90;;;;;;5014971;28;20799;-64
2021/10/05 00:19:56;;;;;;;22.93;20.47;;;13.40;99.90;;;;;;5015196;28;20417;-65
2021/10/05 00:22:21;;;;;;;20.90;18.77;;;13.50;99.90;;;;;;5015198;28;20186;-64
2021/10/05 00:24:47;;;;;;;20.30;18.03;;;13.50;99.90;;;;;;5015016;28;20199;-65
2021/10/05 00:27:12;;;;;;;21.53;18.67;;;13.50;99.90;;;;;;5015142;28;20554;-64
2021/10/05 00:29:38;;;;;;;18.20;16.23;;;13.40;99.90;;;;;;5015002;28;20230;-64
2021/10/05 00:32:04;;;;;;;18.83;17.00;;;13.60;99.90;;;;;;5015006;28;20233;-64
2021/10/05 00:34:31;;;;;;;21.17;19.07;;;13.50;99.90;;;;;;5015042;28;20167;-65
2021/10/05 00:36:56;;;;;;;20.63;18.43;;;13.30;99.90;;;;;;5014721;28;20540;-65
2021/10/05 00:39:22;;;;;;;20.90;18.80;;;13.30;99.90;;;;;;5014632;28;20986;-64
2021/10/05 00:41:48;;;;;;;17.80;16.00;;;13.40;99.90;;;;;;5014906;28;20648;-63
2021/10/05 00:44:14;;;;;;;20.00;18.00;;;13.50;99.90;;;;;;5014775;28;20249;-64
2021/10/05 00:46:39;;;;;;;21.03;18.73;;;13.50;99.90;;;;;;5014658;28;20915;-65
2021/10/05 00:49:05;;;;;;;20.93;17.90;;;13.50;99.90;;;;;;5014464;28;20229;-65
2021/10/05 00:51:31;;;;;;;18.87;16.67;;;13.40;99.90;;;;;;5014655;28;20167;-64
2021/10/05 00:53:57;;;;;;;18.60;16.70;;;13.40;99.90;;;;;;5014539;28;20182;-64
2021/10/05 00:56:23;;;;;;;23.40;18.23;;;13.30;99.90;;;;;;5014543;28;20418;-65
2021/10/05 00:58:49;;;;;;;21.43;19.13;;;13.30;99.90;;;;;;5014153;28;20187;-63
2021/10/05 01:01:16;;;;;;;18.40;16.47;;;13.40;99.90;;;;;;5014430;28;20471;-65
2021/10/05 01:03:42;;;;;;;19.07;17.07;;;13.30;99.90;;;;;;5013384;28;20171;-64
2021/10/05 01:06:08;;;;;;;19.40;17.13;;;13.30;99.90;;;;;;5014323;28;20425;-63
2021/10/05 01:08:34;;;;;;;18.93;16.93;;;13.30;99.90;;;;;;5013901;28;20449;-63
2021/10/05 01:11:00;;;;;;;22.30;19.50;;;13.40;99.90;;;;;;5014323;28;20433;-64
2021/10/05 01:13:26;;;;;;;19.30;17.27;;;13.40;99.90;;;;;;5014406;28;20189;-65
2021/10/05 01:15:52;;;;;;;20.60;18.23;;;13.40;99.90;;;;;;5014154;28;20505;-64
2021/10/05 01:18:17;;;;;;;20.10;17.90;;;13.40;99.90;;;;;;5013824;28;20537;-64
2021/10/05 01:21:01;;;;;;;22.23;18.03;;;13.30;99.90;;;;;;5014133;28;20175;-63
2021/10/05 01:23:29;;;;;;;22.00;18.67;;;13.20;99.90;;;;;;5014057;28;20174;-65
2021/10/05 01:25:55;;;;;;;22.20;19.77;;;13.00;99.90;;;;;;5013966;28;20461;-65
2021/10/05 01:28:22;;;;;;;19.97;17.87;;;13.00;99.90;;;;;;5013703;28;20440;-65
2021/10/05 01:30:48;;;;;;;20.97;18.37;;;13.00;99.90;;;;;;5013811;28;20409;-64
2021/10/05 01:33:14;;;;;;;21.40;19.10;;;13.00;99.90;;;;;;5013818;28;20535;-65
2021/10/05 01:35:40;;;;;;;21.40;19.17;;;13.10;99.90;;;;;;5013756;28;20190;-65
2021/10/05 01:38:05;;;;;;;20.30;17.90;;;13.20;99.90;;;;;;5013325;28;20473;-65
2021/10/05 01:40:31;;;;;;;24.37;20.90;;;13.20;99.90;;;;;;5013748;28;20177;-64
2021/10/05 01:42:57;;;;;;;22.27;18.60;;;13.20;99.90;;;;;;5013728;28;20194;-63
2021/10/05 01:45:22;;;;;;;20.27;18.17;;;13.20;99.90;;;;;;5013530;28;20672;-65
2021/10/05 01:47:48;;;;;;;23.37;20.63;;;13.20;99.90;;;;;;5013307;28;20610;-64
2021/10/05 01:50:14;;;;;;;25.10;21.40;;;13.10;99.90;;;;;;5013538;28;20190;-63
2021/10/05 01:52:39;;;;;;;23.50;20.70;;;13.00;99.90;;;;;;5013530;28;20648;-65
2021/10/05 01:55:06;;;;;;;21.80;19.40;;;13.20;99.90;;;;;;5013479;28;20221;-65
2021/10/05 01:57:32;;;;;;;22.90;20.40;;;13.10;99.90;;;;;;5013085;28;20195;-64
2021/10/05 01:59:57;;;;;;;21.93;19.40;;;13.00;99.90;;;;;;5013352;28;20468;-65
2021/10/05 02:02:24;;;;;;;22.20;19.80;;;12.90;99.90;;;;;;5013308;28;20171;-65
2021/10/05 02:04:49;;;;;;;21.77;19.30;;;12.80;99.90;;;;;;5013215;28;20221;-65
2021/10/05 02:07:15;;;;;;;23.70;19.57;;;12.80;99.90;;;;;;5013176;28;20955;-63
2021/10/05 02:09:47;;;;;;;21.60;19.10;;;12.80;99.90;;;;;;5013191;28;20166;-65
2021/10/05 02:12:16;;;;;;;23.33;20.37;;;12.80;99.90;;;;;;5013206;28;20198;-65
2021/10/05 02:14:46;;;;;;;23.90;19.40;;;12.90;99.90;;;;;;5012970;28;20517;-65
2021/10/05 02:17:13;;;;;;;37.30;19.23;;;12.90;99.90;;;;;;5012749;28;20450;-62
2021/10/05 02:19:39;;;;;;;28.63;19.97;;;13.00;99.90;;;;;;5012981;28;20437;-64
2021/10/05 02:22:05;;;;;;;23.73;19.03;;;13.00;99.90;;;;;;5013061;28;20421;-64
2021/10/05 02:27:05;;;;;;;24.43;20.83;;;13.00;99.90;;;;;;5012859;28;20221;-64
2021/10/05 02:29:36;;;;;;;23.50;20.27;;;13.10;99.90;;;;;;5012650;28;20473;-63
2021/10/05 02:32:02;;;;;;;21.70;19.27;;;13.10;99.90;;;;;;5012808;28;20221;-65
2021/10/05 02:34:28;;;;;;;20.63;18.37;;;13.20;99.90;;;;;;5012816;28;20472;-65
2021/10/05 02:36:53;;;;;;;22.80;18.33;;;13.20;99.90;;;;;;5012578;28;20453;-63
2021/10/05 02:39:19;;;;;;;24.70;20.57;;;13.10;99.90;;;;;;5012448;28;20171;-65
2021/10/05 02:41:44;;;;;;;24.20;20.20;;;12.90;99.90;;;;;;5012833;28;20174;-64
2021/10/05 02:44:10;;;;;;;24.73;20.30;;;12.80;99.90;;;;;;5012533;28;20195;-64
2021/10/05 02:46:36;;;;;;;25.57;21.50;;;12.80;99.90;;;;;;5012409;28;20167;-64
2021/10/05 02:49:02;;;;;;;27.00;21.50;;;12.90;99.90;;;;;;5012325;28;20175;-64
2021/10/05 02:51:27;;;;;;;21.97;19.50;;;12.90;99.90;;;;;;5012491;28;20611;-65
2021/10/05 02:53:53;;;;;;;23.37;19.93;;;13.00;99.90;;;;;;5012585;28;20421;-65
2021/10/05 02:56:18;;;;;;;23.00;20.40;;;12.80;99.90;;;;;;5012494;28;20302;-65
2021/10/05 02:58:44;;;;;;;21.87;18.57;;;12.90;99.90;;;;;;5012157;28;20194;-64
2021/10/05 03:01:09;;;;;;;21.67;18.57;;;13.00;99.90;;;;;;5012408;28;20198;-63
2021/10/05 03:03:35;;;;;;;21.93;18.93;;;13.10;99.90;;;;;;5012473;28;20171;-65
2021/10/05 03:06:00;;;;;;;22.03;18.03;;;13.10;99.90;;;;;;5012361;28;20206;-64
2021/10/05 03:08:29;;;;;;;23.77;18.77;;;13.10;99.90;;;;;;5011990;28;20233;-63
2021/10/05 03:10:55;;;;;;;19.63;17.43;;;13.00;99.90;;;;;;5012341;28;20638;-65
2021/10/05 03:13:20;;;;;;;22.40;18.10;;;12.80;99.90;;;;;;5012265;28;20418;-63
2021/10/05 03:15:47;;;;;;;19.57;17.53;;;12.70;99.90;;;;;;5012131;28;20428;-65
2021/10/05 03:18:13;;;;;;;20.23;17.03;;;12.70;99.90;;;;;;5012087;28;20206;-63
2021/10/05 03:20:38;;;;;;;21.57;18.77;;;12.80;99.90;;;;;;5012359;28;20422;-64
2021/10/05 03:23:04;;;;;;;20.60;17.13;;;12.90;99.90;;;;;;5012192;28;20185;-64
2021/10/05 03:25:29;;;;;;;17.83;14.43;;;12.90;99.90;;;;;;5012126;28;20568;-62
2021/10/05 03:27:55;;;;;;;18.60;15.80;;;12.90;99.90;;;;;;5014899;28;20229;-64
2021/10/05 03:30:20;;;;;;;22.97;17.13;;;12.90;99.90;;;;;;5016064;28;20263;-65
2021/10/05 03:32:46;;;;;;;19.43;16.00;;;12.90;99.90;;;;;;5016337;28;20640;-65
2021/10/05 03:35:11;;;;;;;19.33;16.60;;;13.00;99.90;;;;;;5016180;28;20170;-65
2021/10/05 03:37:37;;;;;;;18.67;16.20;;;13.00;99.90;;;;;;5015542;28;20210;-64
2021/10/05 03:40:04;;;;;;;22.43;16.37;;;13.00;99.90;;;;;;5016025;28;20171;-65
2021/10/05 03:42:31;;;;;;;18.63;15.57;;;12.90;99.90;;;;;;5016010;28;20178;-65
2021/10/05 03:44:57;;;;;;;18.40;14.70;;;13.00;99.90;;;;;;5015747;28;20460;-63
2021/10/05 03:47:23;;;;;;;18.67;14.00;;;12.90;99.90;;;;;;5015548;28;20441;-65
2021/10/05 03:49:48;;;;;;;16.40;14.50;;;12.90;99.90;;;;;;5015928;28;20171;-64
2021/10/05 03:52:14;;;;;;;16.73;15.03;;;12.80;99.90;;;;;;5015751;28;20206;-64
2021/10/05 03:54:39;;;;;;;18.33;15.97;;;12.90;99.90;;;;;;5015749;28;20178;-64
2021/10/05 03:57:05;;;;;;;17.63;14.57;;;12.90;99.90;;;;;;5015574;28;20205;-64
2021/10/05 03:59:30;;;;;;;18.70;14.30;;;12.90;99.90;;;;;;5015343;28;20254;-62
2021/10/05 04:01:56;;;;;;;17.30;14.67;;;13.00;99.90;;;;;;5015621;28;20179;-64
2021/10/05 04:04:21;;;;;;;16.80;12.80;;;12.90;99.90;;;;;;5015571;28;20191;-64
2021/10/05 04:06:47;;;;;;;14.70;12.47;;;12.80;99.90;;;;;;5015437;28;20186;-63
2021/10/05 04:09:12;;;;;;;19.30;15.17;;;12.80;99.90;;;;;;5015207;28;20293;-64
2021/10/05 04:11:38;;;;;;;18.70;14.80;;;12.70;99.90;;;;;;5015421;28;20177;-64
2021/10/05 04:14:04;;;;;;;17.60;14.90;;;12.60;99.90;;;;;;5015352;28;20213;-63
2021/10/05 04:16:29;;;;;;;18.77;13.40;;;12.70;99.90;;;;;;5015263;28;20171;-64
2021/10/05 04:18:55;;;;;;;16.77;13.07;;;12.60;99.90;;;;;;5015042;28;20185;-64
2021/10/05 04:21:20;;;;;;;15.90;12.80;;;12.70;99.90;;;;;;5015340;28;20544;-64
2021/10/05 04:23:46;;;;;;;19.67;14.70;;;12.70;99.90;;;;;;5015225;28;20171;-64
2021/10/05 04:26:12;;;;;;;17.50;14.00;;;12.70;99.90;;;;;;5015281;28;20273;-64
2021/10/05 04:28:37;;;;;;;13.87;11.77;;;12.80;99.90;;;;;;5014673;28;20249;-64
2021/10/05 04:31:03;;;;;;;15.67;12.60;;;12.80;99.90;;;;;;5015066;28;20183;-64
2021/10/05 04:33:29;;;;;;;15.03;13.17;;;13.00;99.90;;;;;;5015053;28;20175;-65
2021/10/05 04:35:55;;;;;;;15.43;11.60;;;12.90;99.90;;;;;;5015074;28;21010;-65
2021/10/05 04:38:20;;;;;;;15.20;12.63;;;12.70;99.90;;;;;;5013665;28;20847;-62
2021/10/05 04:40:46;;;;;;;15.23;12.67;;;12.60;99.90;;;;;;5015050;28;20545;-63
2021/10/05 04:43:11;;;;;;;16.43;14.70;;;12.60;99.90;;;;;;5014746;28;20186;-61
2021/10/05 04:45:37;;;;;;;19.03;15.23;;;12.70;99.90;;;;;;5014807;28;20199;-62
2021/10/05 04:48:07;;;;;;;17.83;14.03;;;12.60;99.90;;;;;;5014414;28;20197;-63
2021/10/05 04:50:33;;;;;;;19.70;14.90;;;12.70;99.90;;;;;;5014668;28;20167;-62
2021/10/05 04:52:58;;;;;;;20.07;14.50;;;12.70;99.90;;;;;;5014662;28;20425;-60
2021/10/05 04:55:25;;;;;;;18.20;13.20;;;12.60;99.90;;;;;;5014608;28;20934;-63
2021/10/05 04:57:50;;;;;;;15.07;12.23;;;12.50;99.90;;;;;;5014129;28;20187;-62
2021/10/05 05:00:16;;;;;;;13.47;11.67;;;12.60;99.90;;;;;;5014490;28;20512;-62
2021/10/05 05:02:42;;;;;;;13.57;11.40;;;12.70;99.90;;;;;;5014528;28;20575;-64
2021/10/05 05:05:08;;;;;;;13.00;10.70;;;12.80;99.90;;;;;;5013139;28;20202;-62
2021/10/05 05:07:33;;;;;;;14.37;11.97;;;12.80;99.90;;;;;;5013997;28;20284;-62
2021/10/05 05:09:59;;;;;;;16.87;12.77;;;12.90;99.90;;;;;;5014347;28;20421;-62
2021/10/05 05:12:25;;;;;;;13.57;12.03;;;12.90;99.90;;;;;;5014101;28;20636;-63
2021/10/05 05:14:50;;;;;;;16.37;13.27;;;12.90;99.90;;;;;;5014274;28;20426;-62
2021/10/05 05:17:16;;;;;;;17.50;14.60;;;13.00;99.90;;;;;;5014007;28;20187;-60
2021/10/05 05:19:42;;;;;;;15.13;13.57;;;13.00;99.90;;;;;;5014062;28;20209;-61
2021/10/05 05:22:07;;;;;;;19.50;13.13;;;13.00;99.90;;;;;;5014145;28;20225;-62
2021/10/05 05:24:33;;;;;;;17.33;14.13;;;13.00;99.90;;;;;;5014031;28;20195;-62
2021/10/05 05:26:58;;;;;;;17.10;13.87;;;13.10;99.90;;;;;;5013357;28;20202;-62
2021/10/05 05:29:24;;;;;;;18.23;12.50;;;13.10;99.90;;;;;;5013329;28;20361;-62
2021/10/05 05:31:52;;;;;;;16.87;15.10;;;12.90;99.90;;;;;;5013556;28;20202;-62
2021/10/05 05:34:17;;;;;;;21.47;17.33;;;12.80;99.90;;;;;;5005090;28;20258;-63
2021/10/05 05:36:43;;;;;;;19.60;16.17;;;12.70;99.90;;;;;;4989713;28;20479;-63
2021/10/05 05:39:08;;;;;;;18.43;14.03;;;12.80;99.90;;;;;;5009518;28;20205;-62
2021/10/05 05:41:34;;;;;;;17.07;15.00;;;12.90;99.90;;;;;;5016078;28;20194;-62
2021/10/05 05:43:59;;;;;;;16.87;13.97;;;12.90;99.90;;;;;;5029323;28;20644;-63
2021/10/05 05:46:25;;;;;;;20.27;16.80;;;12.90;99.90;;;;;;5013526;28;20202;-63
2021/10/05 05:48:50;;;;;;;17.30;14.10;;;13.00;99.90;;;;;;5013067;28;20254;-62
2021/10/05 05:51:16;;;;;;;17.47;14.27;;;13.00;99.90;;;;;;5013286;28;20167;-64
2021/10/05 05:53:42;;;;;;;15.40;12.53;;;13.00;99.90;;;;;;5013412;28;20167;-63
2021/10/05 05:56:07;;;;;;;16.43;13.70;;;12.90;99.90;;;;;;5013365;28;20175;-62
2021/10/05 05:58:33;;;;;;;15.13;13.50;;;12.90;99.90;;;;;;5012854;28;20228;-62
2021/10/05 06:00:58;;;;;;;12.27;10.50;;;12.90;99.90;;;;;;5013236;28;20175;-62
2021/10/05 06:03:24;;;;;;;13.90;9.97;;;13.00;99.90;;;;;;5013345;28;20178;-61
2021/10/05 06:05:49;;;;;;;18.80;11.70;;;13.10;99.90;;;;;;5012927;28;20198;-62
2021/10/05 06:08:15;;;;;;;13.00;10.17;;;13.10;99.90;;;;;;5012398;28;20227;-61
2021/10/05 06:10:42;;;;;;;12.70;9.90;;;13.10;99.90;;;;;;5013073;28;20163;-61
2021/10/05 06:13:07;;;;;;;14.00;10.70;;;13.20;99.90;;;;;;5012965;28;20264;-62
2021/10/05 06:15:35;;;;;;;14.03;10.73;;;13.20;99.90;;;;;;5012857;28;20850;-62
2021/10/05 06:18:00;;;;;;;13.07;10.77;;;13.20;99.90;;;;;;5012378;28;20187;-62
2021/10/05 06:20:27;;;;;;;18.87;11.53;;;13.20;99.90;;;;;;5012915;28;20422;-62
2021/10/05 06:22:54;;;;;;;12.70;10.40;;;13.20;99.90;;;;;;5012829;28;20258;-64
2021/10/05 06:25:22;;;;;;;12.27;10.50;;;13.30;99.90;;;;;;5012719;28;20500;-61
2021/10/05 06:27:49;;;;;;;14.37;11.30;;;13.30;99.90;;;;;;5012477;28;20441;-60
2021/10/05 06:30:16;;;;;;;14.53;11.53;;;13.50;99.90;;;;;;5012767;28;20434;-63
2021/10/05 06:32:44;;;;;;;11.67;9.43;;;13.70;99.90;;;;;;5012713;28;20465;-62
2021/10/05 06:35:10;;;;;;;12.00;10.77;;;13.70;99.90;;;;;;5012622;28;20430;-63
2021/10/05 06:37:37;;;;;;;16.83;14.33;;;13.70;99.90;;;;;;5012053;28;20472;-62
2021/10/05 06:40:04;;;;;;;16.10;12.70;;;13.70;99.90;;;;;;5012686;28;20947;-63
2021/10/05 06:42:33;;;;;;;16.20;13.03;;;13.50;99.90;;;;;;5012373;28;20810;-62
2021/10/05 06:44:59;;;;;;;19.53;16.67;;;13.50;99.90;;;;;;5012361;28;20484;-61
2021/10/05 06:47:24;;;;;;;13.33;11.70;;;13.50;99.90;;;;;;5012142;28;20441;-62
2021/10/05 06:49:50;;;;;;;14.73;11.97;;;13.60;99.90;;;;;;5012541;28;20166;-62
2021/10/05 06:52:15;;;;;;;12.33;10.37;;;13.70;99.90;;;;;;5012294;28;20658;-60
2021/10/05 06:54:41;;;;;;;13.07;9.83;;;13.70;99.90;;;;;;5012423;28;20185;-62
2021/10/05 06:57:06;;;;;;;12.00;10.60;;;13.80;99.90;;;;;;5012228;28;20314;-62
2021/10/05 06:59:31;;;;;;;11.77;10.03;;;13.80;99.90;;;;;;5012042;28;20183;-60
2021/10/05 07:01:57;;;;;;;13.23;9.00;;;13.90;99.90;;;;;;5011702;28;20209;-62
2021/10/05 07:04:22;;;;;;;8.60;7.37;;;14.10;99.90;;;;;;5012029;28;20562;-63
2021/10/05 07:06:48;;;;;;;8.73;7.83;;;14.30;99.90;;;;;;5012056;28;20187;-62
2021/10/05 07:09:14;;;;;;;10.40;9.00;;;15.40;99.90;;;;;;5011709;28;20182;-60
2021/10/05 07:11:39;;;;;;;9.87;8.87;;;16.00;99.90;;;;;;5006947;28;20179;-61
2021/10/05 07:14:05;;;;;;;10.17;9.17;;;16.10;99.90;;;;;;5008778;28;20851;-61
2021/10/05 07:16:31;;;;;;;13.37;9.57;;;15.80;99.90;;;;;;5008906;28;20511;-62
2021/10/05 07:18:56;;;;;;;11.40;9.00;;;15.60;99.90;;;;;;5008795;28;20182;-63
2021/10/05 07:21:23;;;;;;;9.90;8.90;;;15.50;99.90;;;;;;5009015;28;20182;-63
2021/10/05 07:23:49;;;;;;;11.27;9.93;;;15.30;99.90;;;;;;5008825;28;20171;-62
2021/10/05 07:26:16;;;;;;;7.97;6.37;;;15.00;99.90;;;;;;5008862;28;20426;-62
2021/10/05 07:28:42;;;;;;;7.23;6.53;;;14.50;99.90;;;;;;5008457;28;21017;-62
2021/10/05 07:31:08;;;;;;;6.70;5.93;;;14.20;99.90;;;;;;5008525;28;20501;-63
2021/10/05 07:33:33;;;;;;;9.23;7.00;;;14.00;99.90;;;;;;5008917;28;20467;-62
2021/10/05 07:35:59;;;;;;;20.20;18.10;;;14.00;99.90;;;;;;5008596;28;20187;-62
2021/10/05 07:38:24;;;;;;;12.67;11.37;;;14.00;99.90;;;;;;5008670;28;20225;-62
2021/10/05 07:40:50;;;;;;;11.87;10.47;;;13.80;99.90;;;;;;5007204;28;20179;-62
2021/10/05 07:43:16;;;;;;;12.87;10.70;;;13.70;99.90;;;;;;5008600;28;20179;-61
2021/10/05 07:45:42;;;;;;;15.93;11.73;;;13.50;99.90;;;;;;5008624;28;20221;-62
2021/10/05 07:48:08;;;;;;;14.40;10.67;;;13.40;99.90;;;;;;5008434;28;20186;-62
2021/10/05 07:50:34;;;;;;;15.17;11.30;;;13.50;99.90;;;;;;5008586;28;20418;-61
2021/10/05 07:53:01;;;;;;;14.77;11.97;;;13.50;99.90;;;;;;5008815;28;20275;-63
2021/10/05 07:55:31;;;;;;;12.90;10.87;;;13.50;99.90;;;;;;5008626;28;20447;-60
2021/10/05 07:57:57;;;;;;;9.50;8.27;;;13.50;99.90;;;;;;5008388;28;21007;-62
2021/10/05 08:00:22;;;;;;;11.70;10.47;;;13.50;99.90;;;;;;5008486;28;20508;-61
2021/10/05 08:02:48;;;;;;;11.20;10.00;;;13.40;99.90;;;;;;5008642;28;20560;-63
2021/10/05 08:05:16;;;;;;;9.60;8.53;;;13.50;99.90;;;;;;5008184;28;20844;-62
2021/10/05 08:07:43;;;;;;;11.20;9.30;;;13.60;99.90;;;;;;5007994;28;20198;-62
2021/10/05 08:10:09;;;;;;;10.23;8.97;;;13.60;99.90;;;;;;5008581;28;20429;-63
2021/10/05 08:12:35;;;;;;;10.10;8.07;;;13.50;99.90;;;;;;5009384;28;20529;-61
2021/10/05 08:15:00;;;;;;;8.37;7.57;;;13.50;99.90;;;;;;5012036;28;20525;-62
2021/10/05 08:17:26;;;;;;;10.47;7.57;;;13.40;99.90;;;;;;5011849;28;20570;-62
2021/10/05 08:19:52;;;;;;;9.17;7.63;;;13.40;99.90;;;;;;5011865;28;20175;-62
2021/10/05 08:22:17;;;;;;;8.80;7.87;;;13.50;99.90;;;;;;5010490;28;20181;-62
2021/10/05 08:24:43;;;;;;;7.63;6.87;;;13.60;99.90;;;;;;5011887;28;20245;-62
2021/10/05 08:27:09;;;;;;;6.17;4.40;;;13.80;99.90;;;;;;5011777;28;20191;-63
2021/10/05 08:29:37;;;;;;;7.17;6.43;;;14.00;99.90;;;;;;5011422;28;20191;-62
2021/10/05 08:32:04;;;;;;;8.53;7.63;;;14.70;99.90;;;;;;5011902;28;20313;-63
2021/10/05 08:34:29;;;;;;;6.40;5.80;;;15.40;99.90;;;;;;5011673;28;21320;-63
2021/10/05 08:36:55;;;;;;;7.27;6.57;;;15.50;99.90;;;;;;5011494;28;20587;-63
2021/10/05 08:39:21;;;;;;;5.70;5.20;;;15.10;99.90;;;;;;5011587;28;20540;-61
2021/10/05 08:41:47;;;;;;;5.40;4.90;;;14.70;99.90;;;;;;5011724;28;20174;-63
2021/10/05 08:44:14;;;;;;;5.30;4.80;;;14.30;99.90;;;;;;5011515;28;20253;-62
2021/10/05 08:46:41;;;;;;;6.10;5.63;;;14.30;99.90;;;;;;5011388;28;20790;-63
2021/10/05 08:49:07;;;;;;;6.63;5.93;;;14.30;99.90;;;;;;5011221;28;20923;-63
2021/10/05 08:51:33;;;;;;;5.60;5.10;;;14.50;99.90;;;;;;5011571;28;20421;-63
2021/10/05 08:53:59;;;;;;;7.93;6.40;;;14.50;99.90;;;;;;5011138;28;20418;-63
2021/10/05 08:56:25;;;;;;;6.77;6.17;;;14.50;99.90;;;;;;5011228;28;21028;-64
2021/10/05 08:58:50;;;;;;;5.97;5.37;;;14.60;99.90;;;;;;5011017;28;20181;-63
2021/10/05 09:01:18;;;;;;;9.20;6.30;;;14.40;99.90;;;;;;5011362;28;20179;-63
2021/10/05 09:03:48;;;;;;;7.03;6.40;;;14.30;99.90;;;;;;5011197;28;20190;-64
2021/10/05 09:06:15;;;;;;;6.97;6.27;;;14.20;99.90;;;;;;5010671;28;20472;-64
2021/10/05 09:08:42;;;;;;;7.70;6.80;;;14.20;99.90;;;;;;5010505;28;20453;-62
2021/10/05 09:11:11;;;;;;;7.00;6.37;;;14.10;99.90;;;;;;5011165;28;20449;-62
2021/10/05 09:13:41;;;;;;;7.77;6.60;;;14.20;99.90;;;;;;5011206;28;20418;-63
2021/10/05 09:16:18;;;;;;;8.07;7.27;;;14.00;99.90;;;;;;5010608;28;20429;-62
2021/10/05 09:19:02;;;;;;;8.17;7.37;;;14.00;99.90;;;;;;5010539;28;20441;-63
2021/10/05 09:21:37;;;;;;;7.77;6.40;;;14.10;99.90;;;;;;5010953;28;20432;-62
2021/10/05 09:24:10;;;;;;;8.40;6.20;;;14.30;99.90;;;;;;5010117;28;20456;-62
2021/10/05 09:26:49;;;;;;;8.20;7.23;;;14.50;99.90;;;;;;5010805;28;20413;-63
2021/10/05 09:29:24;;;;;;;8.17;6.17;;;14.70;99.90;;;;;;5010456;28;20468;-63
2021/10/05 09:31:58;;;;;;;8.13;7.33;;;15.00;99.90;;;;;;5010868;28;20491;-64
2021/10/05 09:34:38;;;;;;;8.37;7.60;;;15.00;99.90;;;;;;5010521;28;20769;-62
2021/10/05 09:37:05;;;;;;;9.10;7.07;;;15.00;99.90;;;;;;5010499;28;21129;-62
2021/10/05 09:39:39;;;;;;;9.10;8.10;;;15.00;99.90;;;;;;5010425;28;20421;-64
2021/10/05 09:42:04;;;;;;;8.33;7.10;;;14.90;99.90;;;;;;5010470;28;20426;-63
2021/10/05 09:44:30;;;;;;;7.47;6.87;;;14.80;99.90;;;;;;5010287;28;20481;-62
2021/10/05 09:46:56;;;;;;;7.87;7.17;;;14.90;99.90;;;;;;5010004;28;20465;-62
2021/10/05 09:49:23;;;;;;;7.90;7.10;;;14.90;99.90;;;;;;5010422;28;20625;-62
2021/10/05 09:52:00;;;;;;;6.53;5.93;;;15.10;99.90;;;;;;5010134;28;20182;-62
2021/10/05 09:54:27;;;;;;;6.80;6.13;;;15.20;99.90;;;;;;5008791;28;20425;-63
2021/10/05 09:56:54;;;;;;;6.73;6.17;;;15.50;99.90;;;;;;5010368;28;20981;-63
2021/10/05 09:59:19;;;;;;;7.27;6.53;;;15.50;99.90;;;;;;5009939;28;20447;-63
2021/10/05 10:01:45;;;;;;;7.00;6.33;;;15.60;99.90;;;;;;5010173;28;20429;-62
2021/10/05 10:04:11;;;;;;;11.83;6.00;;;15.40;99.90;;;;;;5009894;28;20190;-62
2021/10/05 10:06:40;;;;;;;5.50;5.00;;;15.10;99.90;;;;;;5010066;28;21002;-62
2021/10/05 10:09:07;;;;;;;6.07;5.50;;;15.00;99.90;;;;;;5010042;28;20167;-62
2021/10/05 10:11:34;;;;;;;6.17;4.70;;;14.90;99.90;;;;;;5018287;28;20425;-61
2021/10/05 10:14:00;;;;;;;5.07;4.67;;;14.90;99.90;;;;;;5006831;28;20468;-61
2021/10/05 10:16:26;;;;;;;7.43;4.70;;;15.00;99.90;;;;;;5009471;28;20959;-63
2021/10/05 10:19:02;;;;;;;4.60;4.20;;;15.00;99.90;;;;;;5009320;28;20448;-62
2021/10/05 10:21:31;;;;;;;5.03;4.50;;;15.00;99.90;;;;;;5009753;28;20417;-61
2021/10/05 10:24:15;;;;;;;4.73;4.23;;;14.90;99.90;;;;;;5009550;28;20789;-62
2021/10/05 10:26:47;;;;;;;5.17;4.77;;;14.90;99.90;;;;;;5009714;28;20549;-62
2021/10/05 10:29:13;;;;;;;5.50;5.00;;;15.00;99.90;;;;;;5009369;28;20947;-61
2021/10/05 10:31:40;;;;;;;4.97;4.47;;;15.00;99.90;;;;;;5009451;28;20763;-62
2021/10/05 10:34:17;;;;;;;5.70;5.07;;;15.20;99.90;;;;;;5009298;28;20965;-62
2021/10/05 10:39:24;;;;;;;6.60;5.93;;;15.80;99.90;;;;;;4990321;28;20959;-62
2021/10/05 10:41:52;;;;;;;11.17;10.03;;;16.40;99.90;;;;;;4991310;28;20426;-64
2021/10/05 10:44:25;;;;;;;4.20;3.80;;;16.80;99.90;;;;;;4992517;28;20477;-64
2021/10/05 10:46:50;;;;;;;3.90;3.60;;;16.70;99.90;;;;;;4992932;28;20419;-65
2021/10/05 10:49:19;;;;;;;3.83;3.50;;;16.20;99.90;;;;;;4992743;28;20423;-65
2021/10/05 10:51:47;;;;;;;5.37;4.50;;;15.70;99.90;;;;;;4992715;28;20167;-66
2021/10/05 10:54:22;;;;;;;4.37;3.97;;;15.30;99.90;;;;;;4992980;28;20414;-64
2021/10/05 10:57:04;;;;;;;4.23;3.93;;;14.90;99.90;;;;;;4992719;28;20425;-64
2021/10/05 10:59:31;;;;;;;4.87;4.43;;;14.80;99.90;;;;;;4992446;28;20423;-66
2021/10/05 11:02:05;;;;;;;8.63;7.90;;;14.90;99.90;;;;;;4992687;28;20415;-66
2021/10/05 11:04:32;;;;;;;4.33;3.67;;;14.90;99.90;;;;;;4991292;28;20466;-65
2021/10/05 11:06:58;;;;;;;3.77;3.47;;;15.00;99.90;;;;;;4992571;28;20423;-64
2021/10/05 11:09:42;;;;;;;3.57;3.30;;;15.10;99.90;;;;;;4987178;28;21027;-64
2021/10/05 11:12:08;;;;;;;2.63;2.43;;;14.90;99.90;;;;;;4989125;28;20437;-65
2021/10/05 11:14:37;;;;;;;3.33;3.07;;;14.80;99.90;;;;;;4989267;28;20432;-64
2021/10/05 11:17:08;;;;;;;2.83;2.60;;;14.80;99.90;;;;;;4989402;28;20569;-64
2021/10/05 11:19:42;;;;;;;7.10;4.20;;;15.00;99.90;;;;;;4989315;28;20426;-65
2021/10/05 11:22:15;;;;;;;4.30;3.40;;;15.20;99.90;;;;;;4989466;28;20418;-65
2021/10/05 11:24:46;;;;;;;9.47;2.90;;;15.40;99.90;;;;;;4989380;28;20465;-65
2021/10/05 11:27:22;;;;;;;6.80;4.60;;;15.50;99.90;;;;;;4989305;28;20805;-64
2021/10/05 11:29:48;;;;;;;9.13;4.30;;;15.80;99.90;;;;;;4989069;28;20431;-64
2021/10/05 11:32:18;;;;;;;3.30;2.63;;;16.60;99.90;;;;;;4989433;28;20444;-65
2021/10/05 11:34:45;;;;;;;5.93;3.73;;;17.60;99.90;;;;;;4988963;28;20485;-65
2021/10/05 11:37:12;;;;;;;2.60;2.40;;;19.00;99.90;;;;;;4989244;28;20443;-65
2021/10/05 11:39:40;;;;;;;2.50;2.30;;;19.10;99.90;;;;;;4988320;28;20447;-65
2021/10/05 11:42:14;;;;;;;4.40;2.70;;;18.50;99.90;;;;;;4988615;28;20464;-65
2021/10/05 11:44:44;;;;;;;2.67;2.50;;;18.20;99.90;;;;;;4989013;28;20461;-63
2021/10/05 11:47:12;;;;;;;2.27;2.17;;;17.50;99.90;;;;;;4989262;28;20529;-65
2021/10/05 11:49:43;;;;;;;3.00;2.80;;;17.00;99.90;;;;;;4993041;28;20947;-65
2021/10/05 11:52:18;;;;;;;2.73;2.53;;;16.80;99.90;;;;;;4992783;28;20422;-65
2021/10/05 11:54:44;;;;;;;2.67;2.47;;;16.80;99.90;;;;;;4992901;28;20421;-65
2021/10/05 11:57:12;;;;;;;2.60;2.40;;;16.60;99.90;;;;;;4992587;28;20458;-65
2021/10/05 11:59:37;;;;;;;3.27;1.97;;;16.40;99.90;;;;;;4992592;28;20927;-65
2021/10/05 12:02:17;;;;;;;1.90;1.80;;;16.30;99.90;;;;;;4992449;28;20437;-65
2021/10/05 12:04:47;;;;;;;2.57;2.37;;;16.50;99.90;;;;;;4989642;28;20195;-66
2021/10/05 12:07:18;;;;;;;5.00;2.00;;;16.90;99.90;;;;;;4991683;28;20442;-65
2021/10/05 12:09:46;;;;;;;1.90;1.80;;;16.80;99.90;;;;;;4991726;28;20422;-65
2021/10/05 12:12:14;;;;;;;1.50;1.40;;;16.70;99.90;;;;;;4991758;28;20464;-65
2021/10/05 12:14:42;;;;;;;2.03;1.83;;;16.80;99.90;;;;;;4988631;28;20810;-64
2021/10/05 12:17:14;;;;;;;1.90;1.80;;;17.10;99.90;;;;;;4991399;28;20450;-65
2021/10/05 12:19:52;;;;;;;2.10;2.00;;;17.00;99.90;;;;;;4991693;28;20438;-64
2021/10/05 12:22:23;;;;;;;2.40;2.20;;;16.80;99.90;;;;;;4991715;28;20430;-65
2021/10/05 12:25:13;;;;;;;2.30;2.20;;;16.70;99.90;;;;;;4988809;28;20450;-64
2021/10/05 12:27:41;;;;;;;2.40;2.30;;;17.30;99.90;;;;;;4990546;28;20466;-65
2021/10/05 12:30:15;;;;;;;1.50;1.40;;;19.60;99.90;;;;;;4991748;28;20804;-64
2021/10/05 12:32:44;;;;;;;1.90;1.43;;;20.50;99.90;;;;;;4991680;28;20430;-65
2021/10/05 12:35:37;;;;;;;2.30;2.00;;;19.30;99.90;;;;;;4988976;28;20488;-64
2021/10/05 12:38:06;;;;;;;1.90;1.80;;;18.20;99.90;;;;;;4990491;28;20474;-65
2021/10/05 12:40:59;;;;;;;1.67;1.50;;;17.80;99.90;;;;;;4991234;28;20523;-65